Norris, Tennessee
Current Conditions -  °F | °C
As of 2:53 PM on Thursday 29 Jan 2015 (Local Time) from KOQT Reporting Station
Clear Clear  
Wind Chill: 57°   Ceiling: Unl
Heat Index: 57°   Visibility: 10mi
Dew Point: 34°   Wind: 10mph
Humidity: 42%   Direction: 210°SSW
Pressure: 30.02"   Gusts: 18mph
Location:  36.2°N, 84.07°W
Report Text: KOQT 291953Z AUTO 21009G16KT 10SM CLR 14/01 A3002 RMK AO2 SLP174 T01390011
Loading
Personal Weather Stations






























Interactive Weather Map New forecast layout! Learn more

10-Day Weather Forecast

Advertisements
Track Severe Weather on mobile